Time;durP1;ratioP1;P1;durP2;ratioP2;P2;SDS_P1;SDS_P2;PMS_P1;PMS_P2;Temp;Humidity;BMP_temperature;BMP_pressure;BME280_temperature;BME280_humidity;BME280_pressure;Samples;Min_cycle;Max_cycle;Signal;HPM_P1;HPM_P2
2022/12/07 00:01:03;;;;;;;40.45;3.40;;;;;;;21.03;62.99;99172.97;7313232;19;129087;-35
2022/12/07 00:03:28;;;;;;;19.45;2.08;;;;;;;21.03;63.51;99173.78;7314334;19;129433;-35
2022/12/07 00:05:57;;;;;;;36.45;3.20;;;;;;;21.04;63.82;99164.97;7313146;19;129344;-38
2022/12/07 00:08:22;;;;;;;22.10;2.05;;;;;;;21.03;63.65;99168.56;7312527;19;129370;-36
2022/12/07 00:10:48;;;;;;;35.40;3.17;;;;;;;20.95;63.88;99150.16;7312535;19;129348;-38
2022/12/07 00:13:13;;;;;;;18.98;1.90;;;;;;;21.07;63.04;99162.09;7314595;19;129159;-32
2022/12/07 00:15:38;;;;;;;27.43;2.50;;;;;;;21.08;63.73;99162.91;7313219;19;130097;-34
2022/12/07 00:18:04;;;;;;;24.27;2.33;;;;;;;21.09;63.60;99169.78;7312708;19;129393;-38
2022/12/07 00:20:30;;;;;;;36.40;3.45;;;;;;;21.13;64.04;99163.28;7310158;19;129436;-35
2022/12/07 00:22:55;;;;;;;19.17;2.00;;;;;;;21.17;64.85;99160.22;7313924;19;129799;-35
2022/12/07 00:25:20;;;;;;;24.80;2.27;;;;;;;21.24;64.41;99165.66;7313681;19;129178;-36
2022/12/07 00:27:46;;;;;;;23.17;2.30;;;;;;;21.25;64.09;99157.72;7312439;19;130630;-32
2022/12/07 00:30:11;;;;;;;38.22;2.97;;;;;;;21.21;64.21;99151.13;7313181;19;129263;-36
2022/12/07 00:32:37;;;;;;;30.93;2.93;;;;;;;21.22;64.09;99152.75;7309669;19;130029;-34
2022/12/07 00:35:02;;;;;;;26.08;2.58;;;;;;;21.22;63.78;99141.50;7313696;19;129714;-33
2022/12/07 00:37:27;;;;;;;45.23;3.87;;;;;;;21.24;64.45;99145.59;7312912;19;128853;-37
2022/12/07 00:39:53;;;;;;;29.13;2.42;;;;;;;21.23;63.74;99140.50;7311471;19;129501;-38
2022/12/07 00:42:18;;;;;;;24.33;2.42;;;;;;;21.24;64.15;99145.59;7311979;19;129796;-34
2022/12/07 00:44:43;;;;;;;21.65;2.40;;;;;;;21.29;63.93;99139.91;7312820;19;129430;-36
2022/12/07 00:47:09;;;;;;;49.10;3.90;;;;;;;21.28;64.33;99136.50;7312184;19;129192;-38
2022/12/07 00:49:34;;;;;;;30.45;2.70;;;;;;;21.27;64.30;99142.66;7309826;19;129123;-36
2022/12/07 00:51:59;;;;;;;26.55;2.42;;;;;;;21.27;63.80;99144.50;7311657;19;129238;-35
2022/12/07 00:54:25;;;;;;;17.42;1.67;;;;;;;21.24;64.50;99137.75;7313213;19;129327;-35
2022/12/07 00:56:50;;;;;;;33.87;2.90;;;;;;;21.23;64.24;99137.91;7312208;19;129438;-35
2022/12/07 00:59:15;;;;;;;8.43;1.33;;;;;;;21.28;64.76;99130.44;7310869;19;129180;-34
2022/12/07 01:01:41;;;;;;;22.58;2.22;;;;;;;21.26;63.22;99138.44;7311083;19;129694;-35
2022/12/07 01:04:06;;;;;;;35.83;3.05;;;;;;;21.07;63.12;99138.56;7312132;19;129232;-37
2022/12/07 01:06:32;;;;;;;41.05;3.53;;;;;;;20.99;62.94;99135.03;7311917;19;128978;-36
2022/12/07 01:08:58;;;;;;;21.08;1.85;;;;;;;21.04;63.42;99128.38;7311412;19;130151;-35
2022/12/07 01:11:25;;;;;;;35.33;3.33;;;;;;;21.12;62.75;99138.91;7311432;19;129333;-34
2022/12/07 01:13:53;;;;;;;25.50;2.40;;;;;;;21.24;62.16;99137.75;7313805;19;129763;-34
2022/12/07 01:16:19;;;;;;;47.10;4.05;;;;;;;21.34;61.59;99135.06;7312115;19;129282;-35
2022/12/07 01:18:51;;;;;;;28.30;2.70;;;;;;;21.47;61.69;99130.31;7311509;19;129202;-36
2022/12/07 01:21:20;;;;;;;30.25;2.63;;;;;;;21.57;61.52;99131.84;7311122;19;130492;-37
2022/12/07 01:23:46;;;;;;;12.85;1.75;;;;;;;21.67;61.08;99123.91;7311965;19;129384;-34
2022/12/07 01:26:15;;;;;;;48.63;4.13;;;;;;;21.74;60.27;99128.41;7311260;19;130496;-33
2022/12/07 01:28:40;;;;;;;19.83;1.85;;;;;;;21.77;60.79;99119.44;7311268;19;132016;-39
2022/12/07 01:31:11;;;;;;;14.50;1.63;;;;;;;21.79;60.25;99115.72;7311355;19;130234;-37
2022/12/07 01:33:38;;;;;;;23.95;2.28;;;;;;;21.80;60.24;99121.75;7311658;19;129140;-36
2022/12/07 01:36:16;;;;;;;53.95;4.30;;;;;;;21.77;60.27;99116.81;7311851;19;129427;-33
2022/12/07 01:38:42;;;;;;;37.47;3.20;;;;;;;21.74;60.27;99123.16;7310311;19;129215;-36
2022/12/07 01:41:08;;;;;;;22.97;2.23;;;;;;;21.68;60.53;99128.19;7310689;19;129168;-37
2022/12/07 01:43:34;;;;;;;8.93;1.48;;;;;;;21.58;60.78;99122.22;7311290;19;129236;-33
2022/12/07 01:46:00;;;;;;;29.90;2.83;;;;;;;21.57;61.41;99131.00;7311637;19;129181;-36
2022/12/07 01:48:37;;;;;;;45.15;3.42;;;;;;;21.50;61.40;99130.78;7310629;19;129055;-36
2022/12/07 01:51:08;;;;;;;34.85;2.78;;;;;;;21.44;61.83;99128.78;7311496;19;129289;-33
2022/12/07 01:53:37;;;;;;;23.30;2.35;;;;;;;21.38;61.75;99121.56;7311691;19;128701;-33
2022/12/07 01:56:03;;;;;;;29.63;2.85;;;;;;;21.30;62.02;99121.47;7310193;19;128778;-32
2022/12/07 01:58:28;;;;;;;40.60;3.30;;;;;;;21.19;62.15;99111.22;7310017;19;130161;-36
2022/12/07 02:00:54;;;;;;;31.77;2.72;;;;;;;21.23;62.45;99127.44;7310430;19;129553;-37
2022/12/07 02:03:27;;;;;;;31.80;2.87;;;;;;;21.09;62.64;99104.44;7311587;19;129269;-35
2022/12/07 02:05:53;;;;;;;18.27;1.73;;;;;;;21.16;62.83;99132.44;7310607;19;129006;-36
2022/12/07 02:08:20;;;;;;;25.45;2.35;;;;;;;21.12;62.71;99125.84;7309162;19;130163;-32
2022/12/07 02:10:45;;;;;;;34.20;2.75;;;;;;;21.09;62.85;99126.16;7308986;19;129175;-37
2022/12/07 02:13:21;;;;;;;31.20;2.60;;;;;;;21.01;63.23;99118.22;7310426;19;129429;-36
2022/12/07 02:16:08;;;;;;;34.60;3.22;;;;;;;21.02;63.28;99121.69;7307735;19;129874;-34
2022/12/07 02:18:33;;;;;;;35.88;3.30;;;;;;;20.99;62.86;99122.78;7310228;19;129192;-33
2022/12/07 02:21:25;;;;;;;23.13;2.30;;;;;;;20.97;63.69;99126.50;7310333;19;129223;-36
2022/12/07 02:24:12;;;;;;;39.47;3.47;;;;;;;20.93;63.55;99120.72;7308464;19;129865;-37
2022/12/07 02:27:19;;;;;;;26.73;2.53;;;;;;;20.92;63.56;99121.72;7309280;19;129379;-35
2022/12/07 02:30:14;;;;;;;27.17;2.55;;;;;;;20.91;63.18;99112.22;7308971;19;129854;-35
2022/12/07 02:32:49;;;;;;;23.10;2.15;;;;;;;20.91;64.10;99120.03;7310357;19;129921;-35
2022/12/07 02:35:28;;;;;;;19.38;1.85;;;;;;;20.92;63.94;99113.88;7309046;19;128846;-36
2022/12/07 02:38:03;;;;;;;16.45;1.63;;;;;;;20.83;63.65;99093.84;7308897;19;129158;-33
2022/12/07 02:40:39;;;;;;;32.95;2.95;;;;;;;20.81;63.78;99095.75;7306400;19;129029;-37
2022/12/07 02:43:18;;;;;;;35.03;3.05;;;;;;;20.91;63.20;99106.97;7309642;19;129863;-35
2022/12/07 02:45:46;;;;;;;35.88;2.92;;;;;;;20.89;62.96;99090.63;7310322;19;129234;-37
2022/12/07 02:48:15;;;;;;;19.98;2.15;;;;;;;21.10;62.67;99100.84;7308908;19;129638;-36
2022/12/07 02:50:52;;;;;;;32.47;2.72;;;;;;;21.25;62.78;99101.97;7308268;19;129251;-37
2022/12/07 02:53:40;;;;;;;35.17;3.35;;;;;;;21.33;62.08;99097.66;7308633;19;129535;-36
2022/12/07 02:56:10;;;;;;;39.20;3.65;;;;;;;21.44;61.45;99092.19;7311709;19;129939;-36
2022/12/07 02:58:47;;;;;;;24.38;2.30;;;;;;;21.61;60.76;99096.56;7314743;19;129170;-36
2022/12/07 03:01:31;;;;;;;;;;;;;;;21.64;60.70;99080.56;7316708;19;129392;-37
2022/12/07 03:04:38;;;;;;;46.22;3.55;;;;;;;21.75;60.39;99071.66;7315114;19;129835;-35
2022/12/07 03:07:18;;;;;;;24.48;2.28;;;;;;;21.76;60.80;99074.16;7315211;19;129082;-36
2022/12/07 03:10:02;;;;;;;10.80;1.50;;;;;;;21.76;60.21;99073.28;7316364;19;128964;-37
2022/12/07 03:12:45;;;;;;;43.97;3.53;;;;;;;21.74;60.95;99073.44;7314092;19;130318;-38
2022/12/07 03:15:27;;;;;;;35.75;3.05;;;;;;;21.69;60.75;99067.03;7315501;19;129688;-35
2022/12/07 03:17:56;;;;;;;41.63;3.30;;;;;;;21.61;61.20;99065.19;7315227;19;128858;-35
2022/12/07 03:20:25;;;;;;;26.48;2.40;;;;;;;21.60;61.18;99063.53;7313381;19;128937;-36
2022/12/07 03:22:53;;;;;;;18.02;1.63;;;;;;;21.54;61.33;99068.53;7313697;19;129225;-37
2022/12/07 03:25:18;;;;;;;20.05;1.95;;;;;;;21.47;61.97;99068.34;7314474;19;129172;-36
2022/12/07 03:27:46;;;;;;;29.35;2.58;;;;;;;21.40;61.42;99061.25;7314713;19;129492;-37
2022/12/07 03:30:19;;;;;;;53.17;4.28;;;;;;;21.37;62.14;99061.56;7315005;19;128993;-36
2022/12/07 03:32:50;;;;;;;18.77;1.75;;;;;;;21.29;62.62;99064.91;7315670;19;129508;-35
2022/12/07 03:35:36;;;;;;;22.40;1.85;;;;;;;21.28;62.41;99059.84;7314536;19;129247;-35
2022/12/07 03:38:13;;;;;;;8.63;1.17;;;;;;;21.32;62.15;99056.75;7312667;19;129049;-36
2022/12/07 03:40:50;;;;;;;;;;;;;;;21.49;61.98;99061.16;7313661;19;130126;-38
2022/12/07 03:43:18;;;;;;;23.27;2.10;;;;;;;21.75;60.80;99055.97;7313424;19;129115;-35
2022/12/07 03:45:56;;;;;;;42.08;3.17;;;;;;;21.92;60.39;99050.69;7313703;19;130628;-35
2022/12/07 03:48:35;;;;;;;30.08;2.40;;;;;;;22.08;59.93;99055.19;7314776;19;129270;-36
2022/12/07 03:51:18;;;;;;;42.25;3.35;;;;;;;22.24;59.08;99051.84;7314116;19;130405;-35
2022/12/07 03:53:51;;;;;;;18.80;1.70;;;;;;;22.35;59.23;99048.94;7315897;19;129604;-35
2022/12/07 03:56:17;;;;;;;34.70;3.13;;;;;;;22.51;58.70;99041.97;7312736;19;129451;-36
2022/12/07 03:58:43;;;;;;;20.45;1.90;;;;;;;22.59;58.16;99051.69;7312495;19;130212;-33
2022/12/07 04:01:09;;;;;;;45.40;3.40;;;;;;;22.61;58.41;99044.50;7309880;19;129572;-35
2022/12/07 04:03:34;;;;;;;27.40;2.38;;;;;;;22.67;57.86;99039.44;7313812;19;128994;-35
2022/12/07 04:06:00;;;;;;;36.72;3.03;;;;;;;22.76;57.25;99040.25;7312668;19;129165;-36
2022/12/07 04:08:25;;;;;;;24.80;2.13;;;;;;;22.78;57.34;99040.91;7313252;19;129499;-37
2022/12/07 04:10:51;;;;;;;30.55;2.42;;;;;;;22.75;57.59;99041.25;7313749;19;128799;-32
2022/12/07 04:13:16;;;;;;;26.43;2.33;;;;;;;22.73;57.64;99037.97;7313399;19;129688;-35
2022/12/07 04:15:41;;;;;;;23.63;2.13;;;;;;;22.59;57.61;99015.81;7312942;19;129212;-36
2022/12/07 04:18:07;;;;;;;27.03;2.40;;;;;;;22.63;57.62;99016.31;7312905;19;129971;-32
2022/12/07 04:20:32;;;;;;;29.60;2.40;;;;;;;22.45;58.60;99002.47;7310540;19;129372;-34
2022/12/07 04:22:58;;;;;;;24.20;2.10;;;;;;;22.48;58.56;99026.56;7313096;19;129609;-34
2022/12/07 04:25:23;;;;;;;11.07;1.43;;;;;;;22.41;59.05;99019.50;7313121;19;129580;-35
2022/12/07 04:27:48;;;;;;;33.37;2.67;;;;;;;22.34;59.12;99016.72;7311925;19;129171;-35
2022/12/07 04:30:14;;;;;;;44.17;3.53;;;;;;;22.23;59.37;99018.78;7314335;19;129400;-36
2022/12/07 04:32:40;;;;;;;29.08;2.63;;;;;;;22.14;60.01;99014.47;7311852;19;130402;-34
2022/12/07 04:35:06;;;;;;;21.83;1.85;;;;;;;22.02;60.34;99010.50;7313329;19;130113;-34
2022/12/07 04:37:32;;;;;;;34.45;2.65;;;;;;;21.88;60.56;98990.97;7312712;19;129201;-34
2022/12/07 04:39:57;;;;;;;35.93;2.97;;;;;;;21.86;60.65;98990.31;7312643;19;129005;-32
2022/12/07 04:42:23;;;;;;;42.90;3.80;;;;;;;21.82;60.32;98999.44;7307438;19;129211;-36
2022/12/07 04:44:48;;;;;;;26.77;2.43;;;;;;;21.74;61.15;98989.72;7312244;19;129677;-35
2022/12/07 04:47:13;;;;;;;45.07;3.73;;;;;;;21.69;61.20;98989.38;7311901;19;129948;-37
2022/12/07 04:49:39;;;;;;;21.10;1.87;;;;;;;21.62;60.83;98996.19;7311267;19;128824;-36
2022/12/07 04:52:04;;;;;;;18.40;1.88;;;;;;;21.56;61.01;98994.19;7312358;19;129440;-37
2022/12/07 04:54:30;;;;;;;29.05;2.35;;;;;;;21.50;61.58;98994.78;7313636;19;129387;-35
2022/12/07 04:56:55;;;;;;;29.77;2.40;;;;;;;21.44;61.83;98987.56;7312756;19;129315;-38
2022/12/07 04:59:20;;;;;;;28.65;2.65;;;;;;;21.37;61.97;98988.34;7310810;19;130163;-34
2022/12/07 05:01:46;;;;;;;120.72;9.95;;;;;;;21.26;61.92;98968.50;7288939;19;130186;-39
2022/12/07 05:04:12;;;;;;;111.47;8.93;;;;;;;21.28;62.52;98969.16;7283709;19;129994;-39
2022/12/07 05:06:40;;;;;;;96.07;7.97;;;;;;;21.24;62.18;98967.81;7283561;19;130070;-37
2022/12/07 05:09:05;;;;;;;100.47;7.97;;;;;;;21.19;62.66;98964.84;7285105;19;130426;-39
2022/12/07 05:11:40;;;;;;;110.45;9.18;;;;;;;21.16;62.54;98970.38;7284450;19;129791;-40
2022/12/07 05:14:16;;;;;;;97.25;7.78;;;;;;;21.11;63.27;98967.41;7285789;19;130910;-39
2022/12/07 05:16:42;;;;;;;119.03;9.60;;;;;;;21.09;62.78;98969.31;7284586;19;129753;-38
2022/12/07 05:19:08;;;;;;;105.45;8.38;;;;;;;21.06;62.81;98972.25;7280125;19;130044;-36
2022/12/07 05:21:34;;;;;;;102.53;8.38;;;;;;;21.05;62.89;98964.56;7285471;19;130054;-39
2022/12/07 05:24:00;;;;;;;129.20;10.50;;;;;;;21.06;62.82;98969.63;7283335;19;130538;-40
2022/12/07 05:26:25;;;;;;;124.33;9.97;;;;;;;21.07;63.28;98965.25;7279737;19;129785;-40
2022/12/07 05:28:55;;;;;;;108.75;8.68;;;;;;;21.11;62.72;98962.16;7281235;19;131439;-37
2022/12/07 05:31:21;;;;;;;88.97;7.43;;;;;;;21.17;62.57;98960.75;7282950;19;131315;-36
2022/12/07 05:33:46;;;;;;;119.73;9.87;;;;;;;21.23;62.30;98966.19;7285514;19;130370;-36
2022/12/07 05:36:12;;;;;;;125.57;10.00;;;;;;;21.34;62.26;98962.47;7281760;19;132082;-36
2022/12/07 05:38:37;;;;;;;110.97;8.80;;;;;;;21.45;62.10;98959.63;7282720;19;130605;-39
2022/12/07 05:41:05;;;;;;;112.13;9.13;;;;;;;21.55;61.49;98958.53;7283084;19;131389;-37
2022/12/07 05:43:30;;;;;;;109.13;9.05;;;;;;;21.68;60.97;98952.91;7283624;19;129823;-35
2022/12/07 05:45:56;;;;;;;123.78;9.95;;;;;;;21.72;61.23;98952.44;7281733;19;129666;-39
2022/12/07 05:48:22;;;;;;;128.05;10.57;;;;;;;21.75;60.60;98946.88;7279785;19;132259;-37
2022/12/07 05:50:48;;;;;;;116.88;9.43;;;;;;;21.76;60.86;98947.72;7282603;19;130645;-35
2022/12/07 05:53:14;;;;;;;105.55;8.52;;;;;;;21.76;60.96;98945.94;7283055;19;130888;-38
2022/12/07 05:55:39;;;;;;;115.00;9.00;;;;;;;21.74;60.74;98936.56;7282083;19;129961;-38
2022/12/07 06:00:48;;;;;;;138.13;10.93;;;;;;;21.73;60.15;98925.28;7278265;19;131180;-40
2022/12/07 06:03:14;;;;;;;126.13;10.10;;;;;;;21.85;60.55;98931.91;7283086;19;130130;-38
2022/12/07 06:05:39;;;;;;;120.75;9.75;;;;;;;21.89;59.86;98927.19;7283916;19;130308;-36
2022/12/07 06:08:04;;;;;;;113.05;8.77;;;;;;;21.92;60.27;98927.69;7278537;19;131202;-38
2022/12/07 06:10:30;;;;;;;105.23;8.73;;;;;;;21.96;60.26;98933.44;7283985;19;130445;-36
2022/12/07 06:12:55;;;;;;;104.95;8.57;;;;;;;21.96;60.13;98931.63;7285452;19;130318;-38
2022/12/07 06:15:22;;;;;;;112.07;8.83;;;;;;;22.08;60.20;98926.13;7284053;19;129991;-38
2022/12/07 06:17:48;;;;;;;124.32;9.68;;;;;;;22.12;59.86;98930.03;7280618;19;130779;-37
2022/12/07 06:20:13;;;;;;;105.80;8.40;;;;;;;22.05;59.22;98922.00;7281506;19;129651;-38
2022/12/07 06:22:39;;;;;;;124.88;9.60;;;;;;;22.12;58.70;98925.63;7282194;19;131257;-40
2022/12/07 06:25:04;;;;;;;128.13;10.60;;;;;;;22.14;58.62;98915.00;7281046;19;130672;-39
2022/12/07 06:27:30;;;;;;;118.00;9.55;;;;;;;22.12;58.84;98920.41;7280584;19;130235;-36
2022/12/07 06:29:55;;;;;;;93.72;7.88;;;;;;;22.11;59.14;98910.91;7281450;19;130679;-35
2022/12/07 06:32:20;;;;;;;112.93;9.03;;;;;;;22.09;59.76;98917.28;7291503;19;130208;-35
2022/12/07 06:34:47;;;;;;;126.60;9.93;;;;;;;22.09;59.65;98918.09;7287917;19;130224;-39
2022/12/07 06:37:12;;;;;;;115.95;9.18;;;;;;;21.95;59.29;98901.19;7291470;19;130080;-39
2022/12/07 06:39:38;;;;;;;114.35;9.38;;;;;;;22.05;59.76;98922.00;7285503;19;130866;-40
2022/12/07 06:42:04;;;;;;;104.33;8.43;;;;;;;22.06;59.26;98922.84;7290334;19;131642;-36
2022/12/07 06:44:29;;;;;;;116.55;9.13;;;;;;;21.96;59.42;98923.78;7291514;19;129681;-40
2022/12/07 06:46:54;;;;;;;110.13;8.63;;;;;;;21.89;59.89;98925.41;7290238;19;129794;-37
2022/12/07 06:49:20;;;;;;;102.33;8.43;;;;;;;21.83;60.11;98928.63;7287756;19;131400;-40
2022/12/07 06:51:45;;;;;;;109.97;8.80;;;;;;;21.81;60.06;98928.00;7288783;19;130876;-38
2022/12/07 06:54:13;;;;;;;112.30;8.93;;;;;;;21.74;60.61;98931.34;7289267;19;130114;-39
2022/12/07 06:56:38;;;;;;;107.35;8.88;;;;;;;21.69;60.59;98923.97;7290627;19;129682;-40
2022/12/07 06:59:06;;;;;;;110.25;9.07;;;;;;;21.65;60.87;98927.06;7287817;19;131095;-36
2022/12/07 07:01:32;;;;;;;104.90;8.65;;;;;;;21.62;61.05;98925.56;7286149;19;131319;-40
2022/12/07 07:03:58;;;;;;;126.88;10.25;;;;;;;21.57;61.16;98932.22;7287414;19;130865;-40
2022/12/07 07:06:23;;;;;;;125.67;10.60;;;;;;;21.51;61.39;98928.44;7288174;19;131950;-40
2022/12/07 07:08:49;;;;;;;122.93;10.13;;;;;;;21.44;61.73;98932.66;7283291;19;130967;-35
2022/12/07 07:11:14;;;;;;;109.30;8.90;;;;;;;21.45;61.92;98941.31;7288507;19;129983;-38
2022/12/07 07:13:40;;;;;;;132.68;10.60;;;;;;;21.41;61.76;98932.97;7288159;19;130182;-36
2022/12/07 07:16:06;;;;;;;118.95;9.75;;;;;;;21.34;61.29;98937.16;7287572;19;129754;-36
2022/12/07 07:18:32;;;;;;;117.45;9.40;;;;;;;21.33;61.46;98935.53;7288486;19;130350;-38
2022/12/07 07:20:57;;;;;;;112.77;9.07;;;;;;;21.31;61.72;98942.72;7284069;19;129718;-39
2022/12/07 07:23:23;;;;;;;108.80;8.73;;;;;;;21.30;61.65;98943.69;7290019;19;130935;-38
2022/12/07 07:25:48;;;;;;;111.50;9.05;;;;;;;21.27;61.86;98945.78;7286175;19;130733;-38
2022/12/07 07:28:14;;;;;;;104.32;8.10;;;;;;;21.24;62.43;98946.91;7285557;19;130069;-37
2022/12/07 07:30:40;;;;;;;126.18;10.05;;;;;;;21.22;61.81;98948.03;7289213;19;131165;-37
2022/12/07 07:33:05;;;;;;;114.97;9.20;;;;;;;21.19;62.13;98941.31;7288398;19;132242;-34
2022/12/07 07:35:33;;;;;;;110.27;8.83;;;;;;;21.18;62.53;98952.75;7287597;19;130447;-38
2022/12/07 07:37:59;;;;;;;109.10;8.82;;;;;;;21.17;62.27;98956.31;7283895;19;130463;-40
2022/12/07 07:40:25;;;;;;;117.10;9.68;;;;;;;21.12;61.94;98942.88;7286420;19;129612;-38
2022/12/07 07:42:52;;;;;;;104.57;8.57;;;;;;;21.19;61.98;98949.16;7286588;19;129335;-37
2022/12/07 07:45:18;;;;;;;100.05;8.38;;;;;;;21.22;62.30;98959.28;7288473;19;130169;-34
2022/12/07 07:47:44;;;;;;;99.47;8.30;;;;;;;21.24;62.01;98949.50;7287737;19;130805;-37
2022/12/07 07:50:09;;;;;;;114.47;9.07;;;;;;;21.27;61.80;98951.03;7287526;19;130280;-38
2022/12/07 07:52:35;;;;;;;113.33;9.30;;;;;;;21.31;61.62;98950.56;7287156;19;130718;-37
2022/12/07 07:55:00;;;;;;;107.53;8.80;;;;;;;21.38;61.80;98948.16;7287615;19;131077;-37
2022/12/07 07:57:26;;;;;;;111.30;8.90;;;;;;;21.44;61.82;98950.13;7285825;19;131424;-35
2022/12/07 07:59:52;;;;;;;127.68;9.93;;;;;;;21.46;61.41;98950.81;7284905;19;129988;-37
2022/12/07 08:02:19;;;;;;;82.80;7.07;;;;;;;21.47;61.57;98958.50;7288661;19;130040;-41
2022/12/07 08:04:45;;;;;;;109.70;8.80;;;;;;;21.47;61.13;98957.69;7287841;19;131389;-36
2022/12/07 08:07:12;;;;;;;115.90;9.25;;;;;;;21.35;61.38;98938.81;7286771;19;130635;-36
2022/12/07 08:09:37;;;;;;;131.30;10.47;;;;;;;21.47;61.82;98966.34;7285215;19;130589;-38
2022/12/07 08:12:03;;;;;;;96.37;7.73;;;;;;;21.50;61.54;98958.19;7287693;19;130498;-39
2022/12/07 08:14:28;;;;;;;98.63;7.80;;;;;;;21.50;61.54;98960.78;7287262;19;131441;-41
2022/12/07 08:16:54;;;;;;;108.90;9.15;;;;;;;21.54;61.02;98956.91;7286156;19;132039;-38
2022/12/07 08:19:19;;;;;;;108.47;8.40;;;;;;;21.58;61.51;98949.56;7285299;19;130138;-41
2022/12/07 08:21:45;;;;;;;95.28;7.93;;;;;;;21.61;60.76;98950.09;7284664;19;131007;-38
2022/12/07 08:24:10;;;;;;;105.43;8.27;;;;;;;21.67;60.98;98951.25;7288138;19;130779;-38
2022/12/07 08:26:36;;;;;;;106.57;8.57;;;;;;;21.68;60.50;98945.84;7287430;19;130395;-39
2022/12/07 08:29:01;;;;;;;127.00;10.32;;;;;;;21.74;60.84;98949.66;7284100;19;129771;-40
2022/12/07 08:31:27;;;;;;;116.07;9.40;;;;;;;21.77;60.17;98958.03;7286936;19;130344;-36
2022/12/07 08:33:53;;;;;;;115.90;9.20;;;;;;;21.76;60.46;98943.34;7282152;19;130157;-37
2022/12/07 08:36:18;;;;;;;127.70;10.18;;;;;;;21.82;60.20;98947.94;7284025;19;130261;-36
2022/12/07 08:38:44;;;;;;;101.93;8.43;;;;;;;21.84;60.03;98953.84;7282929;19;131239;-37
2022/12/07 08:41:09;;;;;;;114.00;9.10;;;;;;;21.86;60.26;98944.03;7283781;19;130002;-38
2022/12/07 08:43:35;;;;;;;118.68;9.75;;;;;;;21.86;60.56;98938.81;7284006;19;130926;-42
2022/12/07 08:46:06;;;;;;;153.98;12.52;;;;;;;21.82;60.04;98947.94;7282337;19;131360;-38
2022/12/07 08:48:35;;;;;;;123.05;10.02;;;;;;;21.80;60.12;98949.03;7280393;19;130847;-37
2022/12/07 08:51:02;;;;;;;101.88;8.40;;;;;;;21.77;60.58;98958.03;7283968;19;129949;-36
2022/12/07 08:53:28;;;;;;;111.32;8.93;;;;;;;21.78;60.97;98961.50;7283176;19;131419;-37
2022/12/07 08:55:53;;;;;;;121.13;9.68;;;;;;;21.73;60.97;98954.06;7282689;19;130195;-36
2022/12/07 08:58:19;;;;;;;129.15;10.38;;;;;;;21.75;60.58;98957.34;7284328;19;130636;-40
2022/12/07 09:00:44;;;;;;;115.07;9.32;;;;;;;21.75;60.72;98953.94;7283014;19;130730;-42
2022/12/07 09:03:09;;;;;;;108.00;8.88;;;;;;;21.75;60.28;98946.06;7283459;19;129481;-35
2022/12/07 09:05:35;;;;;;;136.77;10.98;;;;;;;21.79;60.80;98955.28;7284276;19;129920;-39
2022/12/07 09:08:01;;;;;;;138.77;11.07;;;;;;;21.77;60.54;98950.19;7282168;19;130212;-38
2022/12/07 09:10:29;;;;;;;94.55;7.88;;;;;;;21.75;60.99;98946.88;7283451;19;130535;-34
2022/12/07 09:12:54;;;;;;;110.40;8.93;;;;;;;21.79;60.57;98956.09;7286753;19;129395;-35
2022/12/07 09:15:19;;;;;;;128.43;10.43;;;;;;;21.68;60.86;98939.81;7284866;19;131450;-42
2022/12/07 09:17:45;;;;;;;112.97;9.13;;;;;;;21.80;60.40;98962.97;7283358;19;130418;-38
2022/12/07 09:20:11;;;;;;;131.50;10.23;;;;;;;21.82;60.29;98955.78;7284671;19;129728;-40
2022/12/07 09:22:37;;;;;;;106.80;8.85;;;;;;;21.80;60.76;98955.09;7286150;19;131003;-36
2022/12/07 09:25:04;;;;;;;109.45;8.65;;;;;;;21.76;60.70;98953.81;7284991;19;131092;-37
2022/12/07 09:27:29;;;;;;;101.30;8.02;;;;;;;21.72;60.45;98952.44;7284223;19;130403;-34
2022/12/07 09:29:55;;;;;;;101.82;8.35;;;;;;;21.73;60.44;98954.06;7286251;19;129685;-37
2022/12/07 09:32:20;;;;;;;98.23;8.07;;;;;;;21.68;60.46;98953.69;7285878;19;130406;-39
2022/12/07 09:34:46;;;;;;;112.43;8.93;;;;;;;21.65;61.13;98951.41;7285512;19;130504;-40
2022/12/07 09:37:11;;;;;;;108.78;8.75;;;;;;;21.62;60.69;98951.72;7284451;19;130411;-38
2022/12/07 09:39:40;;;;;;;114.28;9.35;;;;;;;21.59;60.89;98949.41;7282771;19;130787;-37
2022/12/07 09:42:07;;;;;;;105.47;8.63;;;;;;;21.58;61.15;98960.88;7281921;19;129815;-39
2022/12/07 09:44:34;;;;;;;116.32;9.32;;;;;;;21.59;60.88;98956.44;7283427;19;131706;-37
2022/12/07 09:47:01;;;;;;;107.85;8.75;;;;;;;21.58;61.58;98954.81;7282234;19;130515;-37
2022/12/07 09:49:32;;;;;;;116.28;9.40;;;;;;;21.56;61.50;98957.59;7281485;19;131467;-40
2022/12/07 09:52:26;;;;;;;116.43;9.40;;;;;;;21.54;61.31;98954.28;7282684;19;130938;-37
2022/12/07 09:54:52;;;;;;;112.65;9.07;;;;;;;21.59;61.14;98953.81;7282828;19;131119;-37
2022/12/07 09:57:27;;;;;;;123.38;9.98;;;;;;;21.58;60.90;98944.34;7283182;19;130967;-40
2022/12/07 10:00:03;;;;;;;107.90;8.35;;;;;;;21.57;61.17;98946.13;7282940;19;130065;-37
2022/12/07 10:02:44;;;;;;;109.55;8.80;;;;;;;21.55;61.68;98940.22;7283152;19;131284;-39
2022/12/07 10:05:26;;;;;;;118.72;9.48;;;;;;;21.55;61.12;98947.28;7291683;19;130083;-35
2022/12/07 10:07:52;;;;;;;112.05;9.07;;;;;;;21.50;61.07;98947.72;7295653;19;130630;-40
2022/12/07 10:10:29;;;;;;;118.68;9.85;;;;;;;21.43;61.73;98928.41;7297153;19;130584;-40
2022/12/07 10:12:59;;;;;;;101.40;8.27;;;;;;;21.43;61.73;98936.25;7298204;19;130101;-35
2022/12/07 10:15:57;;;;;;;100.10;8.05;;;;;;;21.34;62.19;98915.41;7296417;19;130569;-41
2022/12/07 10:18:27;;;;;;;101.78;8.35;;;;;;;21.40;62.08;98926.06;7292625;19;129957;-37
2022/12/07 10:21:07;;;;;;;119.28;9.32;;;;;;;21.40;62.19;98920.06;7297350;19;132267;-36
2022/12/07 10:23:33;;;;;;;116.93;9.27;;;;;;;21.42;61.80;98926.75;7297684;19;130253;-37
2022/12/07 10:25:59;;;;;;;97.55;8.07;;;;;;;21.43;61.76;98914.50;7299156;19;129740;-36
2022/12/07 10:28:35;;;;;;;99.50;8.13;;;;;;;21.45;61.84;98915.19;7296135;19;130513;-37
2022/12/07 10:31:14;;;;;;;114.57;9.27;;;;;;;21.45;61.52;98915.97;7297971;19;130058;-36
2022/12/07 10:33:56;;;;;;;114.15;9.02;;;;;;;21.48;61.18;98925.31;7296089;19;131338;-41
2022/12/07 10:36:44;;;;;;;26.35;2.30;;;;;;;21.49;61.93;98924.34;7319630;19;130075;-35
2022/12/07 10:39:20;;;;;;;29.80;2.33;;;;;;;21.51;61.65;98911.94;7322373;19;130573;-34
2022/12/07 10:42:03;;;;;;;27.03;2.33;;;;;;;21.53;61.16;98912.59;7323424;19;128750;-36
2022/12/07 10:44:31;;;;;;;36.75;2.80;;;;;;;21.48;61.13;98907.00;7321080;19;129413;-38
2022/12/07 10:46:59;;;;;;;22.25;1.90;;;;;;;21.50;61.49;98913.72;7322920;19;130298;-38
2022/12/07 10:50:12;;;;;;;32.60;2.58;;;;;;;21.34;61.39;98892.72;7322981;19;129286;-34
2022/12/07 10:53:05;;;;;;;16.15;1.52;;;;;;;21.42;61.82;98918.91;7321590;19;129540;-36
2022/12/07 10:55:50;;;;;;;14.57;1.42;;;;;;;21.32;61.50;98902.50;7324272;19;128883;-36
2022/12/07 10:58:28;;;;;;;31.63;2.80;;;;;;;21.41;61.64;98906.00;7322303;19;131209;-35
2022/12/07 11:01:14;;;;;;;8.02;0.88;;;;;;;21.41;62.09;98912.03;7324206;19;130882;-36
2022/12/07 11:04:24;;;;;;;25.48;2.05;;;;;;;21.39;61.94;98913.16;7324872;19;129266;-36
2022/12/07 11:06:49;;;;;;;;;;;;;;;21.40;61.85;98904.38;7325572;19;129011;-37
2022/12/07 11:09:52;;;;;;;20.80;1.73;;;;;;;21.43;61.80;98899.66;7322299;19;129606;-37
2022/12/07 11:12:35;;;;;;;25.13;2.13;;;;;;;21.48;61.52;98893.94;7324658;19;129717;-35
2022/12/07 11:15:06;;;;;;;23.73;1.95;;;;;;;21.49;61.40;98890.34;7323456;19;128815;-37
2022/12/07 11:18:01;;;;;;;25.70;2.22;;;;;;;21.51;61.18;98894.44;7314589;19;129055;-37
2022/12/07 11:20:49;;;;;;;19.20;1.80;;;;;;;21.52;61.38;98892.63;7314749;19;129636;-34
2022/12/07 11:23:48;;;;;;;26.67;2.50;;;;;;;21.51;61.73;98896.25;7316457;19;131091;-36
2022/12/07 11:26:25;;;;;;;39.22;3.15;;;;;;;21.46;61.85;98894.09;7317378;19;129627;-34
2022/12/07 11:29:27;;;;;;;21.25;1.80;;;;;;;21.46;61.72;98896.72;7315232;19;129280;-33